sensor_id;sensor_type;location;lat;lon;timestamp;P1;durP1;ratioP1;P2;durP2;ratioP2
12232;SDS011;6179;51.748;8.728;2023-06-22T00:00:55;18.13;;;12.47;;
12232;SDS011;6179;51.748;8.728;2023-06-22T00:06:57;19.93;;;13.07;;
12232;SDS011;6179;51.748;8.728;2023-06-22T00:12:58;21.77;;;13.17;;
12232;SDS011;6179;51.748;8.728;2023-06-22T00:18:59;15.93;;;12.63;;
12232;SDS011;6179;51.748;8.728;2023-06-22T00:25:02;29.23;;;12.93;;
12232;SDS011;6179;51.748;8.728;2023-06-22T00:31:03;16.73;;;12.37;;
12232;SDS011;6179;51.748;8.728;2023-06-22T00:37:04;32.10;;;14.63;;
12232;SDS011;6179;51.748;8.728;2023-06-22T00:43:05;22.03;;;14.03;;
12232;SDS011;6179;51.748;8.728;2023-06-22T00:49:06;21.17;;;14.23;;
12232;SDS011;6179;51.748;8.728;2023-06-22T00:55:07;18.07;;;12.80;;
12232;SDS011;6179;51.748;8.728;2023-06-22T01:01:08;22.87;;;13.10;;
12232;SDS011;6179;51.748;8.728;2023-06-22T01:13:58;25.37;;;13.13;;
12232;SDS011;6179;51.748;8.728;2023-06-22T01:20:12;17.97;;;11.20;;
12232;SDS011;6179;51.748;8.728;2023-06-22T01:26:17;19.53;;;12.03;;
12232;SDS011;6179;51.748;8.728;2023-06-22T01:32:31;19.73;;;12.80;;
12232;SDS011;6179;51.748;8.728;2023-06-22T01:38:35;14.53;;;11.17;;
12232;SDS011;6179;51.748;8.728;2023-06-22T01:44:37;18.63;;;12.53;;
12232;SDS011;6179;51.748;8.728;2023-06-22T01:50:38;15.50;;;11.47;;
12232;SDS011;6179;51.748;8.728;2023-06-22T01:56:39;29.13;;;11.50;;
12232;SDS011;6179;51.748;8.728;2023-06-22T02:02:43;19.20;;;12.80;;
12232;SDS011;6179;51.748;8.728;2023-06-22T02:09:01;18.03;;;11.20;;
12232;SDS011;6179;51.748;8.728;2023-06-22T02:15:09;15.30;;;10.40;;
12232;SDS011;6179;51.748;8.728;2023-06-22T02:21:12;14.27;;;9.93;;
12232;SDS011;6179;51.748;8.728;2023-06-22T02:27:14;17.30;;;11.97;;
12232;SDS011;6179;51.748;8.728;2023-06-22T02:33:14;20.33;;;11.50;;
12232;SDS011;6179;51.748;8.728;2023-06-22T02:39:16;12.33;;;8.30;;
12232;SDS011;6179;51.748;8.728;2023-06-22T02:45:24;13.70;;;9.90;;
12232;SDS011;6179;51.748;8.728;2023-06-22T02:51:25;13.23;;;10.10;;
12232;SDS011;6179;51.748;8.728;2023-06-22T02:57:26;15.30;;;10.70;;
12232;SDS011;6179;51.748;8.728;2023-06-22T03:03:26;20.33;;;10.63;;
12232;SDS011;6179;51.748;8.728;2023-06-22T03:09:28;11.83;;;9.10;;
12232;SDS011;6179;51.748;8.728;2023-06-22T03:15:28;16.10;;;11.53;;
12232;SDS011;6179;51.748;8.728;2023-06-22T03:21:31;14.60;;;9.10;;
12232;SDS011;6179;51.748;8.728;2023-06-22T03:27:32;15.30;;;11.40;;
12232;SDS011;6179;51.748;8.728;2023-06-22T03:33:33;16.77;;;10.30;;
12232;SDS011;6179;51.748;8.728;2023-06-22T03:39:34;19.60;;;10.93;;
12232;SDS011;6179;51.748;8.728;2023-06-22T03:45:35;15.07;;;9.67;;
12232;SDS011;6179;51.748;8.728;2023-06-22T03:51:37;19.60;;;11.13;;
12232;SDS011;6179;51.748;8.728;2023-06-22T03:57:37;13.90;;;9.80;;
12232;SDS011;6179;51.748;8.728;2023-06-22T04:03:38;13.33;;;9.60;;
12232;SDS011;6179;51.748;8.728;2023-06-22T04:09:41;14.83;;;9.00;;
12232;SDS011;6179;51.748;8.728;2023-06-22T04:15:41;12.87;;;10.43;;
12232;SDS011;6179;51.748;8.728;2023-06-22T04:21:43;14.20;;;9.33;;
12232;SDS011;6179;51.748;8.728;2023-06-22T04:27:44;12.50;;;9.50;;
12232;SDS011;6179;51.748;8.728;2023-06-22T04:33:45;12.43;;;9.00;;
12232;SDS011;6179;51.748;8.728;2023-06-22T04:39:46;14.00;;;8.67;;
12232;SDS011;6179;51.748;8.728;2023-06-22T04:45:47;10.27;;;7.20;;
12232;SDS011;6179;51.748;8.728;2023-06-22T04:51:52;15.70;;;9.70;;
12232;SDS011;6179;51.748;8.728;2023-06-22T04:57:55;20.60;;;10.33;;
12232;SDS011;6179;51.748;8.728;2023-06-22T05:03:55;17.80;;;10.90;;
12232;SDS011;6179;51.748;8.728;2023-06-22T05:09:57;15.53;;;7.90;;
12232;SDS011;6179;51.748;8.728;2023-06-22T05:15:57;17.50;;;9.73;;
12232;SDS011;6179;51.748;8.728;2023-06-22T05:22:01;13.87;;;8.17;;
12232;SDS011;6179;51.748;8.728;2023-06-22T05:28:02;12.83;;;7.93;;
12232;SDS011;6179;51.748;8.728;2023-06-22T05:34:10;15.67;;;8.37;;
12232;SDS011;6179;51.748;8.728;2023-06-22T05:40:11;9.90;;;7.33;;
12232;SDS011;6179;51.748;8.728;2023-06-22T05:46:12;9.90;;;7.20;;
12232;SDS011;6179;51.748;8.728;2023-06-22T05:52:13;9.47;;;7.77;;
12232;SDS011;6179;51.748;8.728;2023-06-22T05:58:14;12.00;;;7.90;;
12232;SDS011;6179;51.748;8.728;2023-06-22T06:04:16;8.73;;;7.13;;
12232;SDS011;6179;51.748;8.728;2023-06-22T06:10:18;8.90;;;7.00;;
12232;SDS011;6179;51.748;8.728;2023-06-22T06:16:19;9.00;;;6.70;;
12232;SDS011;6179;51.748;8.728;2023-06-22T06:22:20;7.77;;;6.50;;
12232;SDS011;6179;51.748;8.728;2023-06-22T06:28:21;5.90;;;5.40;;
12232;SDS011;6179;51.748;8.728;2023-06-22T06:34:22;14.07;;;7.63;;
12232;SDS011;6179;51.748;8.728;2023-06-22T06:40:23;17.23;;;9.90;;
12232;SDS011;6179;51.748;8.728;2023-06-22T06:46:25;20.23;;;9.77;;
12232;SDS011;6179;51.748;8.728;2023-06-22T06:52:25;10.63;;;7.10;;
12232;SDS011;6179;51.748;8.728;2023-06-22T06:58:26;12.80;;;6.20;;
12232;SDS011;6179;51.748;8.728;2023-06-22T07:04:28;17.10;;;10.00;;
12232;SDS011;6179;51.748;8.728;2023-06-22T07:10:29;14.97;;;8.23;;
12232;SDS011;6179;51.748;8.728;2023-06-22T07:16:30;11.87;;;7.47;;
12232;SDS011;6179;51.748;8.728;2023-06-22T07:22:31;9.90;;;8.00;;
12232;SDS011;6179;51.748;8.728;2023-06-22T07:28:32;13.77;;;9.10;;
12232;SDS011;6179;51.748;8.728;2023-06-22T07:34:37;15.70;;;8.20;;
12232;SDS011;6179;51.748;8.728;2023-06-22T07:40:38;11.90;;;7.97;;
12232;SDS011;6179;51.748;8.728;2023-06-22T07:46:39;14.13;;;7.93;;
12232;SDS011;6179;51.748;8.728;2023-06-22T07:52:39;8.70;;;7.30;;
12232;SDS011;6179;51.748;8.728;2023-06-22T07:58:40;9.37;;;6.03;;
12232;SDS011;6179;51.748;8.728;2023-06-22T08:04:41;9.40;;;5.93;;
12232;SDS011;6179;51.748;8.728;2023-06-22T08:10:42;7.57;;;5.03;;
12232;SDS011;6179;51.748;8.728;2023-06-22T08:16:43;19.50;;;6.60;;
12232;SDS011;6179;51.748;8.728;2023-06-22T08:22:43;8.17;;;5.90;;
12232;SDS011;6179;51.748;8.728;2023-06-22T08:28:44;13.07;;;6.90;;
12232;SDS011;6179;51.748;8.728;2023-06-22T08:34:45;10.40;;;7.53;;
12232;SDS011;6179;51.748;8.728;2023-06-22T08:40:46;17.67;;;8.67;;
12232;SDS011;6179;51.748;8.728;2023-06-22T08:46:47;15.63;;;8.70;;
12232;SDS011;6179;51.748;8.728;2023-06-22T08:52:47;10.20;;;7.10;;
12232;SDS011;6179;51.748;8.728;2023-06-22T08:58:48;8.97;;;7.00;;
12232;SDS011;6179;51.748;8.728;2023-06-22T09:04:49;10.73;;;6.33;;
12232;SDS011;6179;51.748;8.728;2023-06-22T09:10:55;6.23;;;5.63;;
12232;SDS011;6179;51.748;8.728;2023-06-22T09:16:56;7.13;;;5.77;;
12232;SDS011;6179;51.748;8.728;2023-06-22T09:22:57;8.73;;;5.77;;
12232;SDS011;6179;51.748;8.728;2023-06-22T09:28:58;6.13;;;4.27;;
12232;SDS011;6179;51.748;8.728;2023-06-22T09:34:59;7.97;;;5.40;;
12232;SDS011;6179;51.748;8.728;2023-06-22T09:41:05;8.43;;;4.93;;
12232;SDS011;6179;51.748;8.728;2023-06-22T09:47:06;4.07;;;3.63;;
12232;SDS011;6179;51.748;8.728;2023-06-22T09:53:07;4.83;;;3.50;;
12232;SDS011;6179;51.748;8.728;2023-06-22T09:59:08;4.43;;;2.87;;
12232;SDS011;6179;51.748;8.728;2023-06-22T10:05:09;8.30;;;2.77;;
12232;SDS011;6179;51.748;8.728;2023-06-22T10:11:09;5.70;;;3.80;;
12232;SDS011;6179;51.748;8.728;2023-06-22T10:17:10;5.23;;;3.80;;
12232;SDS011;6179;51.748;8.728;2023-06-22T10:23:11;7.17;;;4.67;;
12232;SDS011;6179;51.748;8.728;2023-06-22T10:29:12;4.97;;;3.73;;
12232;SDS011;6179;51.748;8.728;2023-06-22T10:35:13;5.10;;;3.40;;
12232;SDS011;6179;51.748;8.728;2023-06-22T10:41:15;6.13;;;4.30;;
12232;SDS011;6179;51.748;8.728;2023-06-22T10:47:17;7.03;;;4.33;;
12232;SDS011;6179;51.748;8.728;2023-06-22T10:53:17;3.97;;;3.57;;
12232;SDS011;6179;51.748;8.728;2023-06-22T10:59:18;5.33;;;4.20;;
12232;SDS011;6179;51.748;8.728;2023-06-22T11:05:21;5.27;;;2.87;;
12232;SDS011;6179;51.748;8.728;2023-06-22T11:11:22;7.70;;;4.40;;
12232;SDS011;6179;51.748;8.728;2023-06-22T11:17:22;4.03;;;3.67;;
12232;SDS011;6179;51.748;8.728;2023-06-22T11:23:23;4.27;;;3.87;;
12232;SDS011;6179;51.748;8.728;2023-06-22T11:29:26;4.00;;;3.57;;
12232;SDS011;6179;51.748;8.728;2023-06-22T11:35:26;3.53;;;3.10;;
12232;SDS011;6179;51.748;8.728;2023-06-22T11:41:27;4.23;;;3.60;;
12232;SDS011;6179;51.748;8.728;2023-06-22T11:47:29;7.47;;;6.17;;
12232;SDS011;6179;51.748;8.728;2023-06-22T11:53:29;6.03;;;3.90;;
12232;SDS011;6179;51.748;8.728;2023-06-22T11:59:30;5.63;;;4.33;;
12232;SDS011;6179;51.748;8.728;2023-06-22T12:05:31;13.93;;;3.87;;
12232;SDS011;6179;51.748;8.728;2023-06-22T12:11:32;4.90;;;3.97;;
12232;SDS011;6179;51.748;8.728;2023-06-22T12:17:33;4.80;;;4.03;;
12232;SDS011;6179;51.748;8.728;2023-06-22T12:23:34;4.93;;;3.87;;
12232;SDS011;6179;51.748;8.728;2023-06-22T12:29:35;7.07;;;5.97;;
12232;SDS011;6179;51.748;8.728;2023-06-22T12:35:36;5.77;;;4.90;;
12232;SDS011;6179;51.748;8.728;2023-06-22T12:41:37;8.00;;;5.17;;
12232;SDS011;6179;51.748;8.728;2023-06-22T12:47:37;9.97;;;6.80;;
12232;SDS011;6179;51.748;8.728;2023-06-22T12:53:38;8.50;;;6.80;;
12232;SDS011;6179;51.748;8.728;2023-06-22T12:59:43;11.30;;;6.70;;
12232;SDS011;6179;51.748;8.728;2023-06-22T13:05:44;13.80;;;9.07;;
12232;SDS011;6179;51.748;8.728;2023-06-22T13:11:45;14.10;;;8.37;;
12232;SDS011;6179;51.748;8.728;2023-06-22T13:17:46;12.23;;;8.50;;
12232;SDS011;6179;51.748;8.728;2023-06-22T13:23:46;16.00;;;10.57;;
12232;SDS011;6179;51.748;8.728;2023-06-22T13:29:47;15.13;;;8.77;;
12232;SDS011;6179;51.748;8.728;2023-06-22T13:35:48;13.93;;;9.20;;
12232;SDS011;6179;51.748;8.728;2023-06-22T13:41:49;18.63;;;12.17;;
12232;SDS011;6179;51.748;8.728;2023-06-22T13:47:50;19.03;;;12.23;;
12232;SDS011;6179;51.748;8.728;2023-06-22T13:53:51;17.40;;;12.37;;
12232;SDS011;6179;51.748;8.728;2023-06-22T13:59:52;20.73;;;11.30;;
12232;SDS011;6179;51.748;8.728;2023-06-22T14:05:53;23.03;;;12.37;;
12232;SDS011;6179;51.748;8.728;2023-06-22T14:11:55;26.60;;;13.03;;
12232;SDS011;6179;51.748;8.728;2023-06-22T14:17:56;22.67;;;13.10;;
12232;SDS011;6179;51.748;8.728;2023-06-22T14:23:57;18.00;;;12.40;;
12232;SDS011;6179;51.748;8.728;2023-06-22T14:29:57;20.27;;;13.53;;
12232;SDS011;6179;51.748;8.728;2023-06-22T14:35:58;19.53;;;13.07;;
12232;SDS011;6179;51.748;8.728;2023-06-22T14:41:59;21.00;;;13.13;;
12232;SDS011;6179;51.748;8.728;2023-06-22T14:48:00;23.13;;;14.60;;
12232;SDS011;6179;51.748;8.728;2023-06-22T14:54:01;20.80;;;13.90;;
12232;SDS011;6179;51.748;8.728;2023-06-22T15:00:02;33.30;;;14.23;;
12232;SDS011;6179;51.748;8.728;2023-06-22T15:06:06;28.20;;;15.80;;
12232;SDS011;6179;51.748;8.728;2023-06-22T15:12:08;30.83;;;17.67;;
12232;SDS011;6179;51.748;8.728;2023-06-22T15:18:11;26.40;;;17.00;;
12232;SDS011;6179;51.748;8.728;2023-06-22T15:24:13;24.80;;;15.53;;
12232;SDS011;6179;51.748;8.728;2023-06-22T15:30:14;29.00;;;17.67;;
12232;SDS011;6179;51.748;8.728;2023-06-22T15:36:15;28.03;;;15.83;;
12232;SDS011;6179;51.748;8.728;2023-06-22T15:42:16;26.83;;;14.57;;
12232;SDS011;6179;51.748;8.728;2023-06-22T15:48:16;20.97;;;16.47;;
12232;SDS011;6179;51.748;8.728;2023-06-22T15:54:17;20.23;;;14.10;;
12232;SDS011;6179;51.748;8.728;2023-06-22T16:00:18;30.83;;;15.90;;
12232;SDS011;6179;51.748;8.728;2023-06-22T16:06:20;19.20;;;13.47;;
12232;SDS011;6179;51.748;8.728;2023-06-22T16:12:21;26.33;;;16.50;;
12232;SDS011;6179;51.748;8.728;2023-06-22T16:18:22;22.73;;;15.70;;
12232;SDS011;6179;51.748;8.728;2023-06-22T16:24:23;17.70;;;13.50;;
12232;SDS011;6179;51.748;8.728;2023-06-22T16:30:23;19.17;;;14.40;;
12232;SDS011;6179;51.748;8.728;2023-06-22T16:36:24;25.47;;;15.07;;
12232;SDS011;6179;51.748;8.728;2023-06-22T16:42:25;20.40;;;14.17;;
12232;SDS011;6179;51.748;8.728;2023-06-22T16:48:26;26.40;;;15.13;;
12232;SDS011;6179;51.748;8.728;2023-06-22T16:54:28;24.30;;;15.50;;
12232;SDS011;6179;51.748;8.728;2023-06-22T17:00:30;32.47;;;16.13;;
12232;SDS011;6179;51.748;8.728;2023-06-22T17:06:30;28.90;;;17.43;;
12232;SDS011;6179;51.748;8.728;2023-06-22T17:12:32;37.47;;;20.90;;
12232;SDS011;6179;51.748;8.728;2023-06-22T17:18:33;31.67;;;19.43;;
12232;SDS011;6179;51.748;8.728;2023-06-22T17:24:36;29.90;;;19.83;;
12232;SDS011;6179;51.748;8.728;2023-06-22T17:30:38;29.00;;;18.40;;
12232;SDS011;6179;51.748;8.728;2023-06-22T17:36:40;35.57;;;20.40;;
12232;SDS011;6179;51.748;8.728;2023-06-22T17:42:48;32.70;;;20.33;;
12232;SDS011;6179;51.748;8.728;2023-06-22T17:48:49;30.20;;;20.37;;
12232;SDS011;6179;51.748;8.728;2023-06-22T17:54:50;28.90;;;19.37;;
12232;SDS011;6179;51.748;8.728;2023-06-22T18:00:51;34.90;;;20.00;;
12232;SDS011;6179;51.748;8.728;2023-06-22T18:06:52;37.47;;;21.00;;
12232;SDS011;6179;51.748;8.728;2023-06-22T18:12:55;35.80;;;18.17;;
12232;SDS011;6179;51.748;8.728;2023-06-22T18:18:58;33.67;;;19.23;;
12232;SDS011;6179;51.748;8.728;2023-06-22T18:25:01;30.63;;;18.87;;
12232;SDS011;6179;51.748;8.728;2023-06-22T18:31:03;24.17;;;17.47;;
12232;SDS011;6179;51.748;8.728;2023-06-22T18:37:10;36.37;;;21.57;;
12232;SDS011;6179;51.748;8.728;2023-06-22T18:43:20;26.30;;;19.10;;
12232;SDS011;6179;51.748;8.728;2023-06-22T18:49:23;30.70;;;18.50;;
12232;SDS011;6179;51.748;8.728;2023-06-22T18:55:25;23.03;;;15.13;;
12232;SDS011;6179;51.748;8.728;2023-06-22T19:01:27;20.40;;;12.83;;
12232;SDS011;6179;51.748;8.728;2023-06-22T19:13:52;21.67;;;11.73;;
12232;SDS011;6179;51.748;8.728;2023-06-22T19:19:54;10.93;;;9.10;;
12232;SDS011;6179;51.748;8.728;2023-06-22T19:25:55;10.17;;;8.70;;
12232;SDS011;6179;51.748;8.728;2023-06-22T19:32:00;12.97;;;8.87;;
12232;SDS011;6179;51.748;8.728;2023-06-22T19:38:01;10.77;;;8.33;;
12232;SDS011;6179;51.748;8.728;2023-06-22T19:44:02;9.43;;;7.00;;
12232;SDS011;6179;51.748;8.728;2023-06-22T19:50:04;9.53;;;7.13;;
12232;SDS011;6179;51.748;8.728;2023-06-22T19:56:05;9.10;;;7.23;;
12232;SDS011;6179;51.748;8.728;2023-06-22T20:02:08;9.70;;;6.47;;
12232;SDS011;6179;51.748;8.728;2023-06-22T20:08:13;9.70;;;5.97;;
12232;SDS011;6179;51.748;8.728;2023-06-22T20:14:19;7.03;;;6.23;;
12232;SDS011;6179;51.748;8.728;2023-06-22T20:20:21;9.40;;;5.60;;
12232;SDS011;6179;51.748;8.728;2023-06-22T20:26:27;8.33;;;5.50;;
12232;SDS011;6179;51.748;8.728;2023-06-22T20:32:28;6.53;;;4.83;;
12232;SDS011;6179;51.748;8.728;2023-06-22T20:38:32;6.13;;;5.30;;
12232;SDS011;6179;51.748;8.728;2023-06-22T20:44:35;8.23;;;5.47;;
12232;SDS011;6179;51.748;8.728;2023-06-22T20:50:36;7.17;;;5.17;;
12232;SDS011;6179;51.748;8.728;2023-06-22T20:56:37;7.37;;;5.37;;
12232;SDS011;6179;51.748;8.728;2023-06-22T21:02:38;9.00;;;4.90;;
12232;SDS011;6179;51.748;8.728;2023-06-22T21:08:38;11.20;;;6.10;;
12232;SDS011;6179;51.748;8.728;2023-06-22T21:14:39;7.97;;;5.10;;
12232;SDS011;6179;51.748;8.728;2023-06-22T21:20:40;10.60;;;5.00;;
12232;SDS011;6179;51.748;8.728;2023-06-22T21:26:41;5.50;;;3.90;;
12232;SDS011;6179;51.748;8.728;2023-06-22T21:32:43;6.83;;;4.43;;
12232;SDS011;6179;51.748;8.728;2023-06-22T21:38:43;4.20;;;3.40;;
12232;SDS011;6179;51.748;8.728;2023-06-22T21:44:45;4.90;;;4.00;;
12232;SDS011;6179;51.748;8.728;2023-06-22T21:50:45;7.90;;;4.60;;
12232;SDS011;6179;51.748;8.728;2023-06-22T21:56:46;4.17;;;3.87;;
12232;SDS011;6179;51.748;8.728;2023-06-22T22:02:47;4.07;;;3.33;;
12232;SDS011;6179;51.748;8.728;2023-06-22T22:08:48;6.80;;;4.00;;
12232;SDS011;6179;51.748;8.728;2023-06-22T22:14:49;6.70;;;4.43;;
12232;SDS011;6179;51.748;8.728;2023-06-22T22:20:50;5.43;;;3.27;;
12232;SDS011;6179;51.748;8.728;2023-06-22T22:26:51;4.07;;;3.13;;
12232;SDS011;6179;51.748;8.728;2023-06-22T22:32:52;7.27;;;3.47;;
12232;SDS011;6179;51.748;8.728;2023-06-22T22:38:52;7.17;;;3.77;;
12232;SDS011;6179;51.748;8.728;2023-06-22T22:44:53;5.83;;;5.13;;
12232;SDS011;6179;51.748;8.728;2023-06-22T22:50:54;3.83;;;3.00;;
12232;SDS011;6179;51.748;8.728;2023-06-22T22:56:55;6.07;;;2.97;;
12232;SDS011;6179;51.748;8.728;2023-06-22T23:02:55;4.60;;;3.43;;
12232;SDS011;6179;51.748;8.728;2023-06-22T23:08:58;4.03;;;3.53;;
12232;SDS011;6179;51.748;8.728;2023-06-22T23:14:59;2.43;;;2.27;;
12232;SDS011;6179;51.748;8.728;2023-06-22T23:21:00;4.40;;;2.60;;
12232;SDS011;6179;51.748;8.728;2023-06-22T23:27:02;12.90;;;2.97;;
12232;SDS011;6179;51.748;8.728;2023-06-22T23:33:04;2.00;;;1.43;;
12232;SDS011;6179;51.748;8.728;2023-06-22T23:39:04;8.03;;;2.40;;
12232;SDS011;6179;51.748;8.728;2023-06-22T23:45:06;3.57;;;2.23;;
12232;SDS011;6179;51.748;8.728;2023-06-22T23:51:09;1.90;;;1.80;;
12232;SDS011;6179;51.748;8.728;2023-06-22T23:57:10;2.97;;;2.30;;
